sensor_id;sensor_type;location;lat;lon;timestamp;P1;durP1;ratioP1;P2;durP2;ratioP2
72109;SDS011;59983;52.010;5.420;2022-08-03T00:01:47;7.07;;;2.90;;
72109;SDS011;59983;52.010;5.420;2022-08-03T00:04:14;5.10;;;2.92;;
72109;SDS011;59983;52.010;5.420;2022-08-03T00:06:40;5.40;;;2.80;;
72109;SDS011;59983;52.010;5.420;2022-08-03T00:09:07;4.68;;;2.67;;
72109;SDS011;59983;52.010;5.420;2022-08-03T00:11:34;6.68;;;3.03;;
72109;SDS011;59983;52.010;5.420;2022-08-03T00:14:02;6.75;;;3.08;;
72109;SDS011;59983;52.010;5.420;2022-08-03T00:16:30;3.90;;;3.33;;
72109;SDS011;59983;52.010;5.420;2022-08-03T00:18:56;5.63;;;3.00;;
72109;SDS011;59983;52.010;5.420;2022-08-03T00:21:26;6.45;;;2.50;;
72109;SDS011;59983;52.010;5.420;2022-08-03T00:23:53;8.85;;;2.85;;
72109;SDS011;59983;52.010;5.420;2022-08-03T00:26:20;3.45;;;2.55;;
72109;SDS011;59983;52.010;5.420;2022-08-03T00:28:47;4.28;;;2.95;;
72109;SDS011;59983;52.010;5.420;2022-08-03T00:31:14;5.60;;;2.43;;
72109;SDS011;59983;52.010;5.420;2022-08-03T00:33:44;4.78;;;2.70;;
72109;SDS011;59983;52.010;5.420;2022-08-03T00:36:24;3.83;;;2.83;;
72109;SDS011;59983;52.010;5.420;2022-08-03T00:38:52;4.78;;;2.83;;
72109;SDS011;59983;52.010;5.420;2022-08-03T00:41:18;2.95;;;2.75;;
72109;SDS011;59983;52.010;5.420;2022-08-03T00:43:45;4.47;;;2.67;;
72109;SDS011;59983;52.010;5.420;2022-08-03T00:46:12;5.82;;;2.53;;
72109;SDS011;59983;52.010;5.420;2022-08-03T00:48:45;4.70;;;2.90;;
72109;SDS011;59983;52.010;5.420;2022-08-03T00:51:12;5.15;;;2.47;;
72109;SDS011;59983;52.010;5.420;2022-08-03T00:53:39;2.78;;;2.10;;
72109;SDS011;59983;52.010;5.420;2022-08-03T00:56:06;3.47;;;3.10;;
72109;SDS011;59983;52.010;5.420;2022-08-03T00:58:32;6.85;;;2.75;;
72109;SDS011;59983;52.010;5.420;2022-08-03T01:00:59;6.53;;;2.72;;
72109;SDS011;59983;52.010;5.420;2022-08-03T01:03:25;4.25;;;2.92;;
72109;SDS011;59983;52.010;5.420;2022-08-03T01:05:57;5.72;;;3.20;;
72109;SDS011;59983;52.010;5.420;2022-08-03T01:09:08;6.63;;;2.67;;
72109;SDS011;59983;52.010;5.420;2022-08-03T01:14:43;7.07;;;2.78;;
72109;SDS011;59983;52.010;5.420;2022-08-03T01:17:24;4.90;;;3.42;;
72109;SDS011;59983;52.010;5.420;2022-08-03T01:20:07;5.72;;;2.80;;
72109;SDS011;59983;52.010;5.420;2022-08-03T01:25:30;4.05;;;2.92;;
72109;SDS011;59983;52.010;5.420;2022-08-03T01:31:03;3.55;;;2.47;;
72109;SDS011;59983;52.010;5.420;2022-08-03T01:33:39;5.95;;;2.97;;
72109;SDS011;59983;52.010;5.420;2022-08-03T01:36:12;4.17;;;2.50;;
72109;SDS011;59983;52.010;5.420;2022-08-03T01:38:42;3.08;;;2.88;;
72109;SDS011;59983;52.010;5.420;2022-08-03T01:41:14;7.28;;;3.35;;
72109;SDS011;59983;52.010;5.420;2022-08-03T01:43:45;3.55;;;3.25;;
72109;SDS011;59983;52.010;5.420;2022-08-03T01:46:35;5.32;;;3.22;;
72109;SDS011;59983;52.010;5.420;2022-08-03T01:49:03;7.93;;;3.43;;
72109;SDS011;59983;52.010;5.420;2022-08-03T01:51:35;6.78;;;3.50;;
72109;SDS011;59983;52.010;5.420;2022-08-03T01:54:23;5.80;;;3.20;;
72109;SDS011;59983;52.010;5.420;2022-08-03T01:56:51;4.63;;;3.65;;
72109;SDS011;59983;52.010;5.420;2022-08-03T01:59:19;3.35;;;2.88;;
72109;SDS011;59983;52.010;5.420;2022-08-03T02:01:48;8.43;;;4.10;;
72109;SDS011;59983;52.010;5.420;2022-08-03T02:04:35;4.15;;;3.75;;
72109;SDS011;59983;52.010;5.420;2022-08-03T02:07:04;7.95;;;3.80;;
72109;SDS011;59983;52.010;5.420;2022-08-03T02:09:33;7.57;;;3.35;;
72109;SDS011;59983;52.010;5.420;2022-08-03T02:12:04;8.27;;;3.10;;
72109;SDS011;59983;52.010;5.420;2022-08-03T02:14:34;6.50;;;3.63;;
72109;SDS011;59983;52.010;5.420;2022-08-03T02:17:02;4.93;;;3.65;;
72109;SDS011;59983;52.010;5.420;2022-08-03T02:19:29;4.57;;;3.55;;
72109;SDS011;59983;52.010;5.420;2022-08-03T02:22:01;5.10;;;4.00;;
72109;SDS011;59983;52.010;5.420;2022-08-03T02:24:27;5.30;;;3.53;;
72109;SDS011;59983;52.010;5.420;2022-08-03T02:26:56;11.10;;;3.47;;
72109;SDS011;59983;52.010;5.420;2022-08-03T02:29:26;4.45;;;3.58;;
72109;SDS011;59983;52.010;5.420;2022-08-03T02:32:06;7.30;;;4.05;;
72109;SDS011;59983;52.010;5.420;2022-08-03T02:34:36;4.72;;;3.30;;
72109;SDS011;59983;52.010;5.420;2022-08-03T02:37:05;6.00;;;4.15;;
72109;SDS011;59983;52.010;5.420;2022-08-03T02:39:33;6.80;;;3.97;;
72109;SDS011;59983;52.010;5.420;2022-08-03T02:42:01;6.07;;;3.97;;
72109;SDS011;59983;52.010;5.420;2022-08-03T02:44:31;6.07;;;4.30;;
72109;SDS011;59983;52.010;5.420;2022-08-03T02:47:02;8.25;;;4.75;;
72109;SDS011;59983;52.010;5.420;2022-08-03T02:49:32;6.70;;;4.60;;
72109;SDS011;59983;52.010;5.420;2022-08-03T02:52:18;6.80;;;4.43;;
72109;SDS011;59983;52.010;5.420;2022-08-03T02:54:47;5.60;;;3.78;;
72109;SDS011;59983;52.010;5.420;2022-08-03T02:57:16;7.20;;;3.90;;
72109;SDS011;59983;52.010;5.420;2022-08-03T02:59:45;8.40;;;3.90;;
72109;SDS011;59983;52.010;5.420;2022-08-03T03:02:13;8.60;;;4.10;;
72109;SDS011;59983;52.010;5.420;2022-08-03T03:04:42;11.93;;;3.97;;
72109;SDS011;59983;52.010;5.420;2022-08-03T03:07:30;8.35;;;3.60;;
72109;SDS011;59983;52.010;5.420;2022-08-03T03:10:16;6.70;;;4.15;;
72109;SDS011;59983;52.010;5.420;2022-08-03T03:12:42;7.68;;;4.00;;
72109;SDS011;59983;52.010;5.420;2022-08-03T03:15:10;7.10;;;4.00;;
72109;SDS011;59983;52.010;5.420;2022-08-03T03:17:37;9.30;;;4.07;;
72109;SDS011;59983;52.010;5.420;2022-08-03T03:20:04;4.90;;;3.90;;
72109;SDS011;59983;52.010;5.420;2022-08-03T03:22:32;9.07;;;3.90;;
72109;SDS011;59983;52.010;5.420;2022-08-03T03:25:00;7.65;;;3.70;;
72109;SDS011;59983;52.010;5.420;2022-08-03T03:27:27;14.35;;;4.13;;
72109;SDS011;59983;52.010;5.420;2022-08-03T03:29:55;5.20;;;3.73;;
72109;SDS011;59983;52.010;5.420;2022-08-03T03:32:23;7.05;;;3.60;;
72109;SDS011;59983;52.010;5.420;2022-08-03T03:34:51;8.90;;;4.22;;
72109;SDS011;59983;52.010;5.420;2022-08-03T03:37:19;7.13;;;5.22;;
72109;SDS011;59983;52.010;5.420;2022-08-03T03:39:45;11.85;;;4.40;;
72109;SDS011;59983;52.010;5.420;2022-08-03T03:42:12;8.83;;;4.07;;
72109;SDS011;59983;52.010;5.420;2022-08-03T03:44:39;7.88;;;4.63;;
72109;SDS011;59983;52.010;5.420;2022-08-03T03:47:06;8.50;;;4.50;;
72109;SDS011;59983;52.010;5.420;2022-08-03T03:49:32;10.82;;;4.38;;
72109;SDS011;59983;52.010;5.420;2022-08-03T03:51:59;6.50;;;4.40;;
72109;SDS011;59983;52.010;5.420;2022-08-03T03:54:26;10.23;;;3.90;;
72109;SDS011;59983;52.010;5.420;2022-08-03T03:57:04;6.15;;;3.97;;
72109;SDS011;59983;52.010;5.420;2022-08-03T03:59:31;6.65;;;4.13;;
72109;SDS011;59983;52.010;5.420;2022-08-03T04:02:01;7.38;;;4.68;;
72109;SDS011;59983;52.010;5.420;2022-08-03T04:04:28;7.18;;;4.18;;
72109;SDS011;59983;52.010;5.420;2022-08-03T04:07:15;7.53;;;4.23;;
72109;SDS011;59983;52.010;5.420;2022-08-03T04:10:02;10.35;;;4.72;;
72109;SDS011;59983;52.010;5.420;2022-08-03T04:12:54;8.20;;;4.70;;
72109;SDS011;59983;52.010;5.420;2022-08-03T04:15:24;8.55;;;4.38;;
72109;SDS011;59983;52.010;5.420;2022-08-03T04:17:54;9.07;;;4.85;;
72109;SDS011;59983;52.010;5.420;2022-08-03T04:20:25;9.33;;;5.20;;
72109;SDS011;59983;52.010;5.420;2022-08-03T04:22:55;10.90;;;4.50;;
72109;SDS011;59983;52.010;5.420;2022-08-03T04:25:29;8.20;;;4.95;;
72109;SDS011;59983;52.010;5.420;2022-08-03T04:27:58;11.18;;;4.82;;
72109;SDS011;59983;52.010;5.420;2022-08-03T04:30:47;6.80;;;5.38;;
72109;SDS011;59983;52.010;5.420;2022-08-03T04:33:16;9.63;;;5.10;;
72109;SDS011;59983;52.010;5.420;2022-08-03T04:35:44;9.88;;;4.78;;
72109;SDS011;59983;52.010;5.420;2022-08-03T04:38:29;10.00;;;5.53;;
72109;SDS011;59983;52.010;5.420;2022-08-03T04:40:58;11.75;;;4.85;;
72109;SDS011;59983;52.010;5.420;2022-08-03T04:43:26;9.88;;;5.00;;
72109;SDS011;59983;52.010;5.420;2022-08-03T04:45:53;12.63;;;5.60;;
72109;SDS011;59983;52.010;5.420;2022-08-03T04:48:22;10.25;;;5.68;;
72109;SDS011;59983;52.010;5.420;2022-08-03T04:50:49;11.75;;;5.40;;
72109;SDS011;59983;52.010;5.420;2022-08-03T04:53:16;8.93;;;5.15;;
72109;SDS011;59983;52.010;5.420;2022-08-03T04:55:44;11.38;;;6.25;;
72109;SDS011;59983;52.010;5.420;2022-08-03T04:58:11;10.80;;;5.60;;
72109;SDS011;59983;52.010;5.420;2022-08-03T05:00:37;13.32;;;5.70;;
72109;SDS011;59983;52.010;5.420;2022-08-03T05:03:04;15.95;;;5.60;;
72109;SDS011;59983;52.010;5.420;2022-08-03T05:05:49;14.43;;;5.60;;
72109;SDS011;59983;52.010;5.420;2022-08-03T05:08:16;12.52;;;5.18;;
72109;SDS011;59983;52.010;5.420;2022-08-03T05:10:53;11.73;;;6.00;;
72109;SDS011;59983;52.010;5.420;2022-08-03T05:13:20;19.60;;;6.80;;
72109;SDS011;59983;52.010;5.420;2022-08-03T05:15:47;13.02;;;5.65;;
72109;SDS011;59983;52.010;5.420;2022-08-03T05:18:14;8.40;;;5.72;;
72109;SDS011;59983;52.010;5.420;2022-08-03T05:20:40;12.95;;;5.47;;
72109;SDS011;59983;52.010;5.420;2022-08-03T05:23:07;12.53;;;6.10;;
72109;SDS011;59983;52.010;5.420;2022-08-03T05:25:33;11.95;;;5.13;;
72109;SDS011;59983;52.010;5.420;2022-08-03T05:28:00;8.18;;;5.18;;
72109;SDS011;59983;52.010;5.420;2022-08-03T05:30:26;10.00;;;5.07;;
72109;SDS011;59983;52.010;5.420;2022-08-03T05:32:59;14.85;;;5.22;;
72109;SDS011;59983;52.010;5.420;2022-08-03T05:35:26;9.10;;;5.73;;
72109;SDS011;59983;52.010;5.420;2022-08-03T05:38:13;14.70;;;5.97;;
72109;SDS011;59983;52.010;5.420;2022-08-03T05:40:49;9.02;;;5.63;;
72109;SDS011;59983;52.010;5.420;2022-08-03T05:43:35;14.80;;;5.88;;
72109;SDS011;59983;52.010;5.420;2022-08-03T05:46:02;7.43;;;5.70;;
72109;SDS011;59983;52.010;5.420;2022-08-03T05:48:38;9.67;;;5.53;;
72109;SDS011;59983;52.010;5.420;2022-08-03T05:51:04;8.05;;;5.50;;
72109;SDS011;59983;52.010;5.420;2022-08-03T05:53:36;13.48;;;5.57;;
72109;SDS011;59983;52.010;5.420;2022-08-03T05:56:03;12.05;;;5.93;;
72109;SDS011;59983;52.010;5.420;2022-08-03T05:58:41;11.65;;;5.32;;
72109;SDS011;59983;52.010;5.420;2022-08-03T06:01:09;10.87;;;6.83;;
72109;SDS011;59983;52.010;5.420;2022-08-03T06:03:35;10.55;;;5.68;;
72109;SDS011;59983;52.010;5.420;2022-08-03T06:06:02;10.75;;;5.90;;
72109;SDS011;59983;52.010;5.420;2022-08-03T06:08:29;14.73;;;6.00;;
72109;SDS011;59983;52.010;5.420;2022-08-03T06:10:55;10.10;;;5.50;;
72109;SDS011;59983;52.010;5.420;2022-08-03T06:13:22;10.43;;;5.70;;
72109;SDS011;59983;52.010;5.420;2022-08-03T06:15:48;9.52;;;5.60;;
72109;SDS011;59983;52.010;5.420;2022-08-03T06:18:15;17.00;;;5.25;;
72109;SDS011;59983;52.010;5.420;2022-08-03T06:20:41;18.20;;;5.10;;
72109;SDS011;59983;52.010;5.420;2022-08-03T06:23:08;9.00;;;5.00;;
72109;SDS011;59983;52.010;5.420;2022-08-03T06:25:41;17.50;;;5.13;;
72109;SDS011;59983;52.010;5.420;2022-08-03T06:28:08;10.25;;;5.75;;
72109;SDS011;59983;52.010;5.420;2022-08-03T06:30:49;15.45;;;4.78;;
72109;SDS011;59983;52.010;5.420;2022-08-03T06:33:15;9.43;;;4.70;;
72109;SDS011;59983;52.010;5.420;2022-08-03T06:35:42;15.20;;;4.45;;
72109;SDS011;59983;52.010;5.420;2022-08-03T06:38:10;11.63;;;5.10;;
72109;SDS011;59983;52.010;5.420;2022-08-03T06:40:38;12.02;;;3.97;;
72109;SDS011;59983;52.010;5.420;2022-08-03T06:43:07;11.50;;;3.97;;
72109;SDS011;59983;52.010;5.420;2022-08-03T06:45:38;11.75;;;4.75;;
72109;SDS011;59983;52.010;5.420;2022-08-03T06:48:05;10.27;;;3.60;;
72109;SDS011;59983;52.010;5.420;2022-08-03T06:50:33;21.03;;;5.33;;
72109;SDS011;59983;52.010;5.420;2022-08-03T06:53:01;11.05;;;4.28;;
72109;SDS011;59983;52.010;5.420;2022-08-03T06:55:29;17.02;;;5.75;;
72109;SDS011;59983;52.010;5.420;2022-08-03T06:57:56;16.55;;;4.13;;
72109;SDS011;59983;52.010;5.420;2022-08-03T07:00:28;11.52;;;4.45;;
72109;SDS011;59983;52.010;5.420;2022-08-03T07:02:56;19.77;;;4.60;;
72109;SDS011;59983;52.010;5.420;2022-08-03T07:05:23;12.15;;;4.20;;
72109;SDS011;59983;52.010;5.420;2022-08-03T07:07:53;9.25;;;4.00;;
72109;SDS011;59983;52.010;5.420;2022-08-03T07:10:20;9.85;;;4.32;;
72109;SDS011;59983;52.010;5.420;2022-08-03T07:12:47;12.18;;;3.38;;
72109;SDS011;59983;52.010;5.420;2022-08-03T07:15:21;11.30;;;4.40;;
72109;SDS011;59983;52.010;5.420;2022-08-03T07:18:09;14.35;;;4.35;;
72109;SDS011;59983;52.010;5.420;2022-08-03T07:20:36;16.20;;;4.25;;
72109;SDS011;59983;52.010;5.420;2022-08-03T07:23:02;12.30;;;3.75;;
72109;SDS011;59983;52.010;5.420;2022-08-03T07:25:29;10.57;;;3.53;;
72109;SDS011;59983;52.010;5.420;2022-08-03T07:27:55;11.33;;;3.70;;
72109;SDS011;59983;52.010;5.420;2022-08-03T07:30:23;15.55;;;4.00;;
72109;SDS011;59983;52.010;5.420;2022-08-03T07:32:49;12.45;;;4.03;;
72109;SDS011;59983;52.010;5.420;2022-08-03T07:35:16;12.75;;;3.78;;
72109;SDS011;59983;52.010;5.420;2022-08-03T07:37:50;17.95;;;4.85;;
72109;SDS011;59983;52.010;5.420;2022-08-03T07:40:20;7.13;;;3.77;;
72109;SDS011;59983;52.010;5.420;2022-08-03T07:42:47;13.23;;;4.00;;
72109;SDS011;59983;52.010;5.420;2022-08-03T07:45:18;7.65;;;3.08;;
72109;SDS011;59983;52.010;5.420;2022-08-03T07:47:48;12.57;;;3.15;;
72109;SDS011;59983;52.010;5.420;2022-08-03T07:50:19;12.20;;;3.38;;
72109;SDS011;59983;52.010;5.420;2022-08-03T07:52:46;12.37;;;3.67;;
72109;SDS011;59983;52.010;5.420;2022-08-03T07:55:13;13.27;;;3.80;;
72109;SDS011;59983;52.010;5.420;2022-08-03T07:57:39;9.98;;;3.13;;
72109;SDS011;59983;52.010;5.420;2022-08-03T08:00:07;10.45;;;3.30;;
72109;SDS011;59983;52.010;5.420;2022-08-03T08:02:40;15.18;;;3.75;;
72109;SDS011;59983;52.010;5.420;2022-08-03T08:05:07;8.83;;;3.13;;
72109;SDS011;59983;52.010;5.420;2022-08-03T08:07:36;13.02;;;4.05;;
72109;SDS011;59983;52.010;5.420;2022-08-03T08:10:06;12.77;;;3.40;;
72109;SDS011;59983;52.010;5.420;2022-08-03T08:12:35;10.27;;;3.35;;
72109;SDS011;59983;52.010;5.420;2022-08-03T08:15:03;10.40;;;4.43;;
72109;SDS011;59983;52.010;5.420;2022-08-03T08:17:30;11.37;;;2.87;;
72109;SDS011;59983;52.010;5.420;2022-08-03T08:19:56;15.70;;;4.25;;
72109;SDS011;59983;52.010;5.420;2022-08-03T08:22:24;16.35;;;3.80;;
72109;SDS011;59983;52.010;5.420;2022-08-03T08:24:57;10.43;;;3.13;;
72109;SDS011;59983;52.010;5.420;2022-08-03T08:27:24;16.15;;;3.63;;
72109;SDS011;59983;52.010;5.420;2022-08-03T08:29:51;11.37;;;3.57;;
72109;SDS011;59983;52.010;5.420;2022-08-03T08:32:20;10.00;;;2.88;;
72109;SDS011;59983;52.010;5.420;2022-08-03T08:34:46;15.18;;;3.28;;
72109;SDS011;59983;52.010;5.420;2022-08-03T08:37:13;20.67;;;3.75;;
72109;SDS011;59983;52.010;5.420;2022-08-03T08:39:40;11.52;;;3.00;;
72109;SDS011;59983;52.010;5.420;2022-08-03T08:42:06;15.03;;;3.00;;
72109;SDS011;59983;52.010;5.420;2022-08-03T08:44:33;8.43;;;3.05;;
72109;SDS011;59983;52.010;5.420;2022-08-03T08:47:00;13.43;;;3.85;;
72109;SDS011;59983;52.010;5.420;2022-08-03T08:49:28;10.65;;;2.80;;
72109;SDS011;59983;52.010;5.420;2022-08-03T08:51:57;9.13;;;3.25;;
72109;SDS011;59983;52.010;5.420;2022-08-03T08:54:26;10.57;;;2.43;;
72109;SDS011;59983;52.010;5.420;2022-08-03T08:56:57;12.02;;;3.10;;
72109;SDS011;59983;52.010;5.420;2022-08-03T08:59:30;14.82;;;4.05;;
72109;SDS011;59983;52.010;5.420;2022-08-03T09:02:14;16.33;;;2.85;;
72109;SDS011;59983;52.010;5.420;2022-08-03T09:04:41;19.75;;;3.33;;
72109;SDS011;59983;52.010;5.420;2022-08-03T09:07:10;13.50;;;3.17;;
72109;SDS011;59983;52.010;5.420;2022-08-03T09:09:45;17.80;;;3.22;;
72109;SDS011;59983;52.010;5.420;2022-08-03T09:12:43;13.15;;;3.00;;
72109;SDS011;59983;52.010;5.420;2022-08-03T09:17:47;10.00;;;2.70;;
72109;SDS011;59983;52.010;5.420;2022-08-03T09:20:17;19.00;;;3.83;;
72109;SDS011;59983;52.010;5.420;2022-08-03T09:22:50;13.32;;;3.10;;
72109;SDS011;59983;52.010;5.420;2022-08-03T09:25:32;11.23;;;3.17;;
72109;SDS011;59983;52.010;5.420;2022-08-03T09:30:30;16.83;;;3.42;;
72109;SDS011;59983;52.010;5.420;2022-08-03T09:33:00;14.10;;;3.23;;
72109;SDS011;59983;52.010;5.420;2022-08-03T09:35:28;8.75;;;2.80;;
72109;SDS011;59983;52.010;5.420;2022-08-03T09:40:43;14.27;;;2.53;;
72109;SDS011;59983;52.010;5.420;2022-08-03T09:43:12;13.57;;;2.97;;
72109;SDS011;59983;52.010;5.420;2022-08-03T09:45:39;12.53;;;3.10;;
72109;SDS011;59983;52.010;5.420;2022-08-03T09:48:19;10.00;;;2.80;;
72109;SDS011;59983;52.010;5.420;2022-08-03T09:50:52;12.52;;;2.00;;
72109;SDS011;59983;52.010;5.420;2022-08-03T09:53:41;12.70;;;2.40;;
72109;SDS011;59983;52.010;5.420;2022-08-03T09:56:36;15.18;;;2.53;;
72109;SDS011;59983;52.010;5.420;2022-08-03T09:59:04;8.93;;;2.47;;
72109;SDS011;59983;52.010;5.420;2022-08-03T10:01:34;12.80;;;2.72;;
72109;SDS011;59983;52.010;5.420;2022-08-03T10:04:02;13.70;;;2.90;;
72109;SDS011;59983;52.010;5.420;2022-08-03T10:06:30;14.52;;;2.67;;
72109;SDS011;59983;52.010;5.420;2022-08-03T10:09:31;10.45;;;2.90;;
72109;SDS011;59983;52.010;5.420;2022-08-03T10:11:50;11.87;;;3.03;;
72109;SDS011;59983;52.010;5.420;2022-08-03T10:14:17;16.17;;;3.05;;
72109;SDS011;59983;52.010;5.420;2022-08-03T10:16:45;15.45;;;2.08;;
72109;SDS011;59983;52.010;5.420;2022-08-03T10:19:12;10.45;;;2.58;;
72109;SDS011;59983;52.010;5.420;2022-08-03T10:21:48;16.08;;;2.88;;
72109;SDS011;59983;52.010;5.420;2022-08-03T10:24:18;12.97;;;2.20;;
72109;SDS011;59983;52.010;5.420;2022-08-03T10:26:49;9.80;;;2.13;;
72109;SDS011;59983;52.010;5.420;2022-08-03T10:29:17;10.18;;;2.47;;
72109;SDS011;59983;52.010;5.420;2022-08-03T10:31:47;12.05;;;2.00;;
72109;SDS011;59983;52.010;5.420;2022-08-03T10:34:24;8.63;;;2.13;;
72109;SDS011;59983;52.010;5.420;2022-08-03T10:36:54;10.63;;;2.37;;
72109;SDS011;59983;52.010;5.420;2022-08-03T10:39:25;17.50;;;3.83;;
72109;SDS011;59983;52.010;5.420;2022-08-03T10:41:54;11.23;;;2.72;;
72109;SDS011;59983;52.010;5.420;2022-08-03T10:44:29;10.38;;;2.28;;
72109;SDS011;59983;52.010;5.420;2022-08-03T10:47:02;12.43;;;2.00;;
72109;SDS011;59983;52.010;5.420;2022-08-03T10:49:30;14.80;;;2.13;;
72109;SDS011;59983;52.010;5.420;2022-08-03T10:52:00;10.57;;;2.10;;
72109;SDS011;59983;52.010;5.420;2022-08-03T10:54:40;9.23;;;2.30;;
72109;SDS011;59983;52.010;5.420;2022-08-03T10:57:51;20.05;;;3.53;;
72109;SDS011;59983;52.010;5.420;2022-08-03T11:00:24;10.40;;;2.47;;
72109;SDS011;59983;52.010;5.420;2022-08-03T11:03:02;11.67;;;1.87;;
72109;SDS011;59983;52.010;5.420;2022-08-03T11:05:37;9.65;;;2.65;;
72109;SDS011;59983;52.010;5.420;2022-08-03T11:08:28;9.32;;;1.70;;
72109;SDS011;59983;52.010;5.420;2022-08-03T11:10:58;9.20;;;2.15;;
72109;SDS011;59983;52.010;5.420;2022-08-03T11:13:59;15.00;;;2.42;;
72109;SDS011;59983;52.010;5.420;2022-08-03T11:16:30;12.43;;;2.30;;
72109;SDS011;59983;52.010;5.420;2022-08-03T11:19:06;12.02;;;2.75;;
72109;SDS011;59983;52.010;5.420;2022-08-03T11:29:53;9.30;;;1.97;;
72109;SDS011;59983;52.010;5.420;2022-08-03T11:35:24;9.25;;;2.13;;
72109;SDS011;59983;52.010;5.420;2022-08-03T11:46:03;6.10;;;2.50;;
72109;SDS011;59983;52.010;5.420;2022-08-03T11:48:34;9.70;;;2.00;;
72109;SDS011;59983;52.010;5.420;2022-08-03T11:51:03;6.72;;;2.30;;
72109;SDS011;59983;52.010;5.420;2022-08-03T11:53:31;13.35;;;2.10;;
72109;SDS011;59983;52.010;5.420;2022-08-03T11:56:07;12.93;;;2.33;;
72109;SDS011;59983;52.010;5.420;2022-08-03T11:58:44;10.35;;;1.65;;
72109;SDS011;59983;52.010;5.420;2022-08-03T12:01:33;8.80;;;1.85;;
72109;SDS011;59983;52.010;5.420;2022-08-03T12:04:02;10.27;;;1.40;;
72109;SDS011;59983;52.010;5.420;2022-08-03T12:06:30;11.55;;;1.52;;
72109;SDS011;59983;52.010;5.420;2022-08-03T12:09:17;7.50;;;1.70;;
72109;SDS011;59983;52.010;5.420;2022-08-03T12:11:47;13.02;;;1.90;;
72109;SDS011;59983;52.010;5.420;2022-08-03T12:14:26;10.93;;;1.52;;
72109;SDS011;59983;52.010;5.420;2022-08-03T12:17:13;9.52;;;2.05;;
72109;SDS011;59983;52.010;5.420;2022-08-03T12:19:42;9.85;;;1.25;;
72109;SDS011;59983;52.010;5.420;2022-08-03T12:22:09;5.83;;;1.33;;
72109;SDS011;59983;52.010;5.420;2022-08-03T12:24:40;10.43;;;1.55;;
72109;SDS011;59983;52.010;5.420;2022-08-03T12:27:07;10.57;;;1.63;;
72109;SDS011;59983;52.010;5.420;2022-08-03T12:29:34;9.93;;;1.35;;
72109;SDS011;59983;52.010;5.420;2022-08-03T12:32:01;6.43;;;1.48;;
72109;SDS011;59983;52.010;5.420;2022-08-03T12:34:43;4.80;;;0.93;;
72109;SDS011;59983;52.010;5.420;2022-08-03T12:37:12;5.13;;;1.77;;
72109;SDS011;59983;52.010;5.420;2022-08-03T12:39:51;6.30;;;1.15;;
72109;SDS011;59983;52.010;5.420;2022-08-03T12:42:32;10.13;;;1.80;;
72109;SDS011;59983;52.010;5.420;2022-08-03T12:47:56;5.80;;;1.50;;
72109;SDS011;59983;52.010;5.420;2022-08-03T12:50:27;5.68;;;0.82;;
72109;SDS011;59983;52.010;5.420;2022-08-03T12:52:57;7.90;;;1.70;;
72109;SDS011;59983;52.010;5.420;2022-08-03T12:55:33;6.07;;;1.00;;
72109;SDS011;59983;52.010;5.420;2022-08-03T12:58:33;6.82;;;1.83;;
72109;SDS011;59983;52.010;5.420;2022-08-03T13:01:02;6.77;;;1.10;;
72109;SDS011;59983;52.010;5.420;2022-08-03T13:03:39;8.63;;;1.63;;
72109;SDS011;59983;52.010;5.420;2022-08-03T13:06:15;4.53;;;1.20;;
72109;SDS011;59983;52.010;5.420;2022-08-03T13:08:43;6.40;;;1.65;;
72109;SDS011;59983;52.010;5.420;2022-08-03T13:11:17;5.57;;;1.50;;
72109;SDS011;59983;52.010;5.420;2022-08-03T13:13:48;5.93;;;1.37;;
72109;SDS011;59983;52.010;5.420;2022-08-03T13:16:15;2.63;;;0.70;;
72109;SDS011;59983;52.010;5.420;2022-08-03T13:18:44;3.58;;;1.25;;
72109;SDS011;59983;52.010;5.420;2022-08-03T13:21:14;4.60;;;1.10;;
72109;SDS011;59983;52.010;5.420;2022-08-03T13:23:41;5.10;;;1.10;;
72109;SDS011;59983;52.010;5.420;2022-08-03T13:26:09;6.67;;;1.13;;
72109;SDS011;59983;52.010;5.420;2022-08-03T13:28:40;6.38;;;1.50;;
72109;SDS011;59983;52.010;5.420;2022-08-03T13:31:06;5.00;;;1.30;;
72109;SDS011;59983;52.010;5.420;2022-08-03T13:33:33;7.90;;;2.05;;
72109;SDS011;59983;52.010;5.420;2022-08-03T13:36:00;4.50;;;1.10;;
72109;SDS011;59983;52.010;5.420;2022-08-03T13:38:26;5.50;;;1.20;;
72109;SDS011;59983;52.010;5.420;2022-08-03T13:40:53;5.50;;;1.50;;
72109;SDS011;59983;52.010;5.420;2022-08-03T13:43:21;4.18;;;1.42;;
72109;SDS011;59983;52.010;5.420;2022-08-03T13:45:47;6.07;;;1.45;;
72109;SDS011;59983;52.010;5.420;2022-08-03T13:48:20;5.13;;;1.35;;
72109;SDS011;59983;52.010;5.420;2022-08-03T13:51:02;6.13;;;1.40;;
72109;SDS011;59983;52.010;5.420;2022-08-03T13:53:46;8.60;;;1.80;;
72109;SDS011;59983;52.010;5.420;2022-08-03T13:56:13;4.13;;;1.63;;
72109;SDS011;59983;52.010;5.420;2022-08-03T13:58:39;3.45;;;1.40;;
72109;SDS011;59983;52.010;5.420;2022-08-03T14:01:06;7.97;;;1.48;;
72109;SDS011;59983;52.010;5.420;2022-08-03T14:03:32;4.80;;;1.70;;
72109;SDS011;59983;52.010;5.420;2022-08-03T14:05:59;9.73;;;1.85;;
72109;SDS011;59983;52.010;5.420;2022-08-03T14:08:26;4.47;;;1.27;;
72109;SDS011;59983;52.010;5.420;2022-08-03T14:10:52;2.97;;;1.20;;
72109;SDS011;59983;52.010;5.420;2022-08-03T14:13:19;13.65;;;1.67;;
72109;SDS011;59983;52.010;5.420;2022-08-03T14:15:45;3.67;;;1.10;;
72109;SDS011;59983;52.010;5.420;2022-08-03T14:18:16;13.68;;;2.47;;
72109;SDS011;59983;52.010;5.420;2022-08-03T14:20:59;5.95;;;1.50;;
72109;SDS011;59983;52.010;5.420;2022-08-03T14:23:32;5.47;;;1.58;;
72109;SDS011;59983;52.010;5.420;2022-08-03T14:25:59;2.65;;;1.42;;
72109;SDS011;59983;52.010;5.420;2022-08-03T14:28:26;3.70;;;1.10;;
72109;SDS011;59983;52.010;5.420;2022-08-03T14:30:53;7.88;;;2.00;;
72109;SDS011;59983;52.010;5.420;2022-08-03T14:33:21;5.60;;;1.42;;
72109;SDS011;59983;52.010;5.420;2022-08-03T14:35:48;5.07;;;2.08;;
72109;SDS011;59983;52.010;5.420;2022-08-03T14:38:16;7.20;;;1.50;;
72109;SDS011;59983;52.010;5.420;2022-08-03T14:40:43;3.40;;;1.27;;
72109;SDS011;59983;52.010;5.420;2022-08-03T14:43:09;9.02;;;1.55;;
72109;SDS011;59983;52.010;5.420;2022-08-03T14:45:37;3.15;;;1.10;;
72109;SDS011;59983;52.010;5.420;2022-08-03T14:48:04;8.77;;;1.30;;
72109;SDS011;59983;52.010;5.420;2022-08-03T14:50:50;4.15;;;1.15;;
72109;SDS011;59983;52.010;5.420;2022-08-03T14:53:21;4.23;;;1.60;;
72109;SDS011;59983;52.010;5.420;2022-08-03T14:55:48;5.13;;;1.63;;
72109;SDS011;59983;52.010;5.420;2022-08-03T14:58:17;5.13;;;1.65;;
72109;SDS011;59983;52.010;5.420;2022-08-03T15:00:47;4.10;;;1.48;;
72109;SDS011;59983;52.010;5.420;2022-08-03T15:03:15;5.13;;;1.58;;
72109;SDS011;59983;52.010;5.420;2022-08-03T15:05:45;6.07;;;1.30;;
72109;SDS011;59983;52.010;5.420;2022-08-03T15:08:12;12.00;;;1.67;;
72109;SDS011;59983;52.010;5.420;2022-08-03T15:10:38;2.35;;;1.40;;
72109;SDS011;59983;52.010;5.420;2022-08-03T15:13:11;5.18;;;1.23;;
72109;SDS011;59983;52.010;5.420;2022-08-03T15:15:38;4.95;;;1.17;;
72109;SDS011;59983;52.010;5.420;2022-08-03T15:18:06;3.63;;;1.40;;
72109;SDS011;59983;52.010;5.420;2022-08-03T15:20:32;6.72;;;1.45;;
72109;SDS011;59983;52.010;5.420;2022-08-03T15:23:11;6.97;;;1.13;;
72109;SDS011;59983;52.010;5.420;2022-08-03T15:25:39;4.20;;;1.08;;
72109;SDS011;59983;52.010;5.420;2022-08-03T15:28:25;4.97;;;1.27;;
72109;SDS011;59983;52.010;5.420;2022-08-03T15:30:52;6.87;;;1.43;;
72109;SDS011;59983;52.010;5.420;2022-08-03T15:33:18;2.75;;;1.13;;
72109;SDS011;59983;52.010;5.420;2022-08-03T15:35:45;5.95;;;2.25;;
72109;SDS011;59983;52.010;5.420;2022-08-03T15:38:12;3.65;;;1.35;;
72109;SDS011;59983;52.010;5.420;2022-08-03T15:40:39;7.22;;;1.30;;
72109;SDS011;59983;52.010;5.420;2022-08-03T15:43:06;5.77;;;1.43;;
72109;SDS011;59983;52.010;5.420;2022-08-03T15:45:33;6.13;;;1.45;;